Time,TemperatureF,DewpointF,PressureIn,WindDirection,WindDirectionDegrees,WindSpeedMPH,WindSpeedGustMPH,Humidity,HourlyPrecipIn,Conditions,Clouds,dailyrainin,SoftwareType,DateUTC
2013-01-11 00:00:00,32.8,22.0,30.48,NW,321,6.0,6.0,64,0.00,,,0.00,Wunderground v.1.15,2013-01-11 05:00:00,
2013-01-11 00:01:00,32.8,22.0,30.48,NW,314,4.0,6.0,64,0.00,,,0.00,Wunderground v.1.15,2013-01-11 05:01:00,
2013-01-11 00:03:00,32.8,22.0,30.48,NW,318,5.0,6.0,64,0.00,,,0.00,Wunderground v.1.15,2013-01-11 05:03:00,
2013-01-11 00:07:00,32.7,21.9,30.48,NW,314,5.0,6.0,64,0.00,,,0.00,Wunderground v.1.15,2013-01-11 05:07:00,
2013-01-11 00:12:00,32.6,21.8,30.47,WNW,296,3.0,5.0,64,0.00,,,0.00,Wunderground v.1.15,2013-01-11 05:12:00,
2013-01-11 00:17:00,32.6,21.8,30.48,NW,304,0.0,5.0,64,0.00,,,0.00,Wunderground v.1.15,2013-01-11 05:17:00,
2013-01-11 00:22:00,32.5,22.0,30.48,WNW,287,2.0,3.0,65,0.00,,,0.00,Wunderground v.1.15,2013-01-11 05:22:00,
2013-01-11 00:27:00,32.5,22.0,30.49,WNW,295,5.0,6.0,65,0.00,,,0.00,Wunderground v.1.15,2013-01-11 05:27:00,
2013-01-11 00:32:00,32.4,21.9,30.49,NW,319,6.0,6.0,65,0.00,,,0.00,Wunderground v.1.15,2013-01-11 05:32:00,
2013-01-11 00:37:00,32.3,21.8,30.48,NNW,327,2.0,6.0,65,0.00,,,0.00,Wunderground v.1.15,2013-01-11 05:37:00,
2013-01-11 00:42:00,32.3,21.8,30.49,NW,315,3.0,4.0,65,0.00,,,0.00,Wunderground v.1.15,2013-01-11 05:42:00,
2013-01-11 00:47:00,32.2,21.7,30.48,NW,319,5.0,5.0,65,0.00,,,0.00,Wunderground v.1.15,2013-01-11 05:47:00,
2013-01-11 00:52:00,32.1,22.0,30.48,NW,319,6.0,6.0,66,0.00,,,0.00,Wunderground v.1.15,2013-01-11 05:52:00,
2013-01-11 00:57:00,32.1,22.0,30.48,NNW,336,5.0,6.0,66,0.00,,,0.00,Wunderground v.1.15,2013-01-11 05:57:00,
2013-01-11 01:03:00,32.1,22.0,30.48,NW,310,1.0,3.0,66,0.00,,,0.00,Wunderground v.1.15,2013-01-11 06:03:00,
2013-01-11 01:09:00,32.1,22.0,30.48,NNW,327,2.0,5.0,66,0.00,,,0.00,Wunderground v.1.15,2013-01-11 06:09:00,
2013-01-11 01:14:00,32.1,22.0,30.48,NNW,327,2.0,2.0,66,0.00,,,0.00,Wunderground v.1.15,2013-01-11 06:14:00,
2013-01-11 01:19:00,32.1,22.0,30.47,NNW,327,1.0,2.0,66,0.00,,,0.00,Wunderground v.1.15,2013-01-11 06:19:00,
2013-01-11 01:24:00,32.0,21.9,30.47,NNW,327,0.0,2.0,66,0.00,,,0.00,Wunderground v.1.15,2013-01-11 06:24:00,
2013-01-11 01:29:00,31.9,21.5,30.47,NNW,327,2.0,2.0,65,0.00,,,0.00,Wunderground v.1.15,2013-01-11 06:29:00,
2013-01-11 01:34:00,31.7,21.6,30.47,NNW,327,1.0,1.0,66,0.00,,,0.00,Wunderground v.1.15,2013-01-11 06:34:00,
2013-01-11 01:40:00,31.5,21.4,30.47,NW,309,2.0,2.0,66,0.00,,,0.00,Wunderground v.1.15,2013-01-11 06:40:00,
2013-01-11 01:45:00,31.4,21.3,30.48,NW,309,2.0,2.0,66,0.00,,,0.00,Wunderground v.1.15,2013-01-11 06:45:00,
2013-01-11 01:50:00,31.3,21.3,30.48,WNW,303,3.0,3.0,66,0.00,,,0.00,Wunderground v.1.15,2013-01-11 06:50:00,
2013-01-11 01:56:00,31.2,21.5,30.47,WNW,298,4.0,6.0,67,0.00,,,0.00,Wunderground v.1.15,2013-01-11 06:56:00,
2013-01-11 02:01:00,31.1,21.4,30.48,WNW,302,1.0,3.0,67,0.00,,,0.00,Wunderground v.1.15,2013-01-11 07:01:00,
2013-01-11 02:06:00,31.0,21.3,30.47,NW,309,5.0,6.0,67,0.00,,,0.00,Wunderground v.1.15,2013-01-11 07:06:00,
2013-01-11 02:11:00,30.8,21.5,30.47,NW,313,2.0,4.0,68,0.00,,,0.00,Wunderground v.1.15,2013-01-11 07:11:00,
2013-01-11 02:16:00,30.8,21.5,30.48,NW,313,1.0,4.0,68,0.00,,,0.00,Wunderground v.1.15,2013-01-11 07:16:00,
2013-01-11 02:21:00,30.7,21.4,30.48,NW,314,4.0,4.0,68,0.00,,,0.00,Wunderground v.1.15,2013-01-11 07:21:00,
2013-01-11 02:26:00,30.6,21.3,30.47,NW,326,2.0,5.0,68,0.00,,,0.00,Wunderground v.1.15,2013-01-11 07:26:00,
2013-01-11 02:31:00,30.6,21.3,30.47,NW,326,0.0,3.0,68,0.00,,,0.00,Wunderground v.1.15,2013-01-11 07:31:00,
2013-01-11 02:36:00,30.5,21.2,30.47,NW,326,2.0,4.0,68,0.00,,,0.00,Wunderground v.1.15,2013-01-11 07:36:00,
2013-01-11 02:41:00,30.4,21.1,30.47,NW,326,1.0,2.0,68,0.00,,,0.00,Wunderground v.1.15,2013-01-11 07:41:00,
2013-01-11 02:46:00,30.4,21.1,30.47,NW,326,3.0,3.0,68,0.00,,,0.00,Wunderground v.1.15,2013-01-11 07:46:00,
2013-01-11 02:51:00,30.2,20.9,30.47,NW,326,0.0,1.0,68,0.00,,,0.00,Wunderground v.1.15,2013-01-11 07:51:00,
2013-01-11 02:56:00,30.1,20.8,30.47,NW,326,0.0,1.0,68,0.00,,,0.00,Wunderground v.1.15,2013-01-11 07:56:00,
2013-01-11 03:01:00,29.9,21.0,30.47,NW,326,0.0,0.0,69,0.00,,,0.00,Wunderground v.1.15,2013-01-11 08:01:00,
2013-01-11 03:06:00,29.7,20.8,30.46,NW,326,1.0,3.0,69,0.00,,,0.00,Wunderground v.1.15,2013-01-11 08:06:00,
2013-01-11 03:11:00,29.6,20.7,30.47,NW,326,1.0,1.0,69,0.00,,,0.00,Wunderground v.1.15,2013-01-11 08:11:00,
2013-01-11 03:16:00,29.6,20.7,30.46,NW,326,0.0,3.0,69,0.00,,,0.00,Wunderground v.1.15,2013-01-11 08:16:00,
2013-01-11 03:21:00,29.5,20.6,30.46,NW,326,0.0,2.0,69,0.00,,,0.00,Wunderground v.1.15,2013-01-11 08:21:00,
2013-01-11 03:26:00,29.5,20.6,30.46,NW,326,1.0,3.0,69,0.00,,,0.00,Wunderground v.1.15,2013-01-11 08:26:00,
2013-01-11 03:31:00,29.4,20.5,30.45,NW,326,0.0,1.0,69,0.00,,,0.00,Wunderground v.1.15,2013-01-11 08:31:00,
2013-01-11 03:36:00,29.4,20.8,30.45,NW,326,0.0,1.0,70,0.00,,,0.00,Wunderground v.1.15,2013-01-11 08:36:00,
2013-01-11 03:41:00,29.3,20.7,30.45,NW,326,1.0,1.0,70,0.00,,,0.00,Wunderground v.1.15,2013-01-11 08:41:00,
2013-01-11 03:46:00,29.2,20.6,30.45,NW,326,0.0,1.0,70,0.00,,,0.00,Wunderground v.1.15,2013-01-11 08:46:00,
2013-01-11 03:51:00,29.1,20.5,30.45,NW,326,0.0,0.0,70,0.00,,,0.00,Wunderground v.1.15,2013-01-11 08:51:00,
2013-01-11 03:56:00,29.1,20.5,30.45,NW,326,0.0,0.0,70,0.00,,,0.00,Wunderground v.1.15,2013-01-11 08:56:00,
2013-01-11 04:01:00,29.0,20.4,30.45,NNW,327,0.0,0.0,70,0.00,,,0.00,Wunderground v.1.15,2013-01-11 09:01:00,
2013-01-11 04:06:00,28.9,20.3,30.44,NW,326,0.0,0.0,70,0.00,,,0.00,Wunderground v.1.15,2013-01-11 09:06:00,
2013-01-11 04:11:00,28.9,20.3,30.45,NW,326,0.0,0.0,70,0.00,,,0.00,Wunderground v.1.15,2013-01-11 09:11:00,
2013-01-11 04:16:00,28.8,20.6,30.45,NW,326,0.0,2.0,71,0.00,,,0.00,Wunderground v.1.15,2013-01-11 09:16:00,
2013-01-11 04:21:00,28.8,20.6,30.44,NW,326,0.0,0.0,71,0.00,,,0.00,Wunderground v.1.15,2013-01-11 09:21:00,
2013-01-11 04:26:00,28.7,20.5,30.44,NW,326,2.0,2.0,71,0.00,,,0.00,Wunderground v.1.15,2013-01-11 09:26:00,
2013-01-11 04:31:00,28.7,20.5,30.44,NW,326,0.0,2.0,71,0.00,,,0.00,Wunderground v.1.15,2013-01-11 09:31:00,
2013-01-11 04:36:00,28.6,20.7,30.44,NW,326,0.0,2.0,72,0.00,,,0.00,Wunderground v.1.15,2013-01-11 09:36:00,
2013-01-11 04:41:00,28.6,20.7,30.44,NW,326,0.0,2.0,72,0.00,,,0.00,Wunderground v.1.15,2013-01-11 09:41:00,
2013-01-11 04:46:00,28.5,20.6,30.44,NW,326,0.0,2.0,72,0.00,,,0.00,Wunderground v.1.15,2013-01-11 09:46:00,
2013-01-11 04:51:00,28.5,20.6,30.44,NW,326,1.0,2.0,72,0.00,,,0.00,Wunderground v.1.15,2013-01-11 09:51:00,
2013-01-11 04:56:00,28.5,20.9,30.44,NW,326,3.0,3.0,73,0.00,,,0.00,Wunderground v.1.15,2013-01-11 09:56:00,
2013-01-11 05:01:00,28.5,20.9,30.44,NW,326,0.0,2.0,73,0.00,,,0.00,Wunderground v.1.15,2013-01-11 10:01:00,
2013-01-11 05:06:00,28.5,20.9,30.44,NW,326,2.0,2.0,73,0.00,,,0.00,Wunderground v.1.15,2013-01-11 10:06:00,
2013-01-11 05:11:00,28.5,20.9,30.45,NW,326,0.0,1.0,73,0.00,,,0.00,Wunderground v.1.15,2013-01-11 10:11:00,
2013-01-11 05:16:00,28.5,20.9,30.45,NW,326,0.0,1.0,73,0.00,,,0.00,Wunderground v.1.15,2013-01-11 10:16:00,
2013-01-11 05:21:00,28.5,20.9,30.45,NW,326,1.0,1.0,73,0.00,,,0.00,Wunderground v.1.15,2013-01-11 10:21:00,
2013-01-11 05:26:00,28.4,20.8,30.45,NW,326,0.0,2.0,73,0.00,,,0.00,Wunderground v.1.15,2013-01-11 10:26:00,
2013-01-11 05:31:00,28.4,20.8,30.45,NW,326,0.0,0.0,73,0.00,,,0.00,Wunderground v.1.15,2013-01-11 10:31:00,
2013-01-11 05:36:00,28.3,20.7,30.46,NW,326,0.0,0.0,73,0.00,,,0.00,Wunderground v.1.15,2013-01-11 10:36:00,
2013-01-11 05:41:00,28.3,20.7,30.45,NW,326,0.0,1.0,73,0.00,,,0.00,Wunderground v.1.15,2013-01-11 10:41:00,
2013-01-11 05:46:00,28.2,20.7,30.45,NW,326,0.0,1.0,73,0.00,,,0.00,Wunderground v.1.15,2013-01-11 10:46:00,
2013-01-11 05:51:00,28.2,20.7,30.46,NW,326,0.0,0.0,73,0.00,,,0.00,Wunderground v.1.15,2013-01-11 10:51:00,
2013-01-11 05:56:00,28.2,21.0,30.45,NW,326,3.0,3.0,74,0.00,,,0.00,Wunderground v.1.15,2013-01-11 10:56:00,
2013-01-11 06:02:00,28.1,20.9,30.46,NW,326,0.0,1.0,74,0.00,,,0.00,Wunderground v.1.15,2013-01-11 11:02:00,
2013-01-11 06:07:00,28.1,20.9,30.46,NNW,327,1.0,1.0,74,0.00,,,0.00,Wunderground v.1.15,2013-01-11 11:07:00,
2013-01-11 06:12:00,28.1,20.9,30.46,NW,326,1.0,1.0,74,0.00,,,0.00,Wunderground v.1.15,2013-01-11 11:12:00,
2013-01-11 06:17:00,28.1,20.9,30.46,NW,326,0.0,1.0,74,0.00,,,0.00,Wunderground v.1.15,2013-01-11 11:17:00,
2013-01-11 06:22:00,28.1,20.9,30.46,NW,326,0.0,0.0,74,0.00,,,0.00,Wunderground v.1.15,2013-01-11 11:22:00,
2013-01-11 06:27:00,28.1,20.9,30.46,NW,326,0.0,0.0,74,0.00,,,0.00,Wunderground v.1.15,2013-01-11 11:27:00,
2013-01-11 06:32:00,28.2,21.0,30.46,NW,326,0.0,0.0,74,0.00,,,0.00,Wunderground v.1.15,2013-01-11 11:32:00,
2013-01-11 06:37:00,28.2,21.0,30.46,NW,326,0.0,0.0,74,0.00,,,0.00,Wunderground v.1.15,2013-01-11 11:37:00,
2013-01-11 06:42:00,28.2,21.0,30.46,NW,326,0.0,0.0,74,0.00,,,0.00,Wunderground v.1.15,2013-01-11 11:42:00,
2013-01-11 06:47:00,28.2,21.0,30.46,NW,326,0.0,0.0,74,0.00,,,0.00,Wunderground v.1.15,2013-01-11 11:47:00,
2013-01-11 06:52:00,28.2,21.3,30.46,NW,326,0.0,0.0,75,0.00,,,0.00,Wunderground v.1.15,2013-01-11 11:52:00,
2013-01-11 06:57:00,28.2,21.3,30.47,NW,326,0.0,0.0,75,0.00,,,0.00,Wunderground v.1.15,2013-01-11 11:57:00,
2013-01-11 07:02:00,28.2,21.3,30.47,NW,326,0.0,0.0,75,0.00,,,0.00,Wunderground v.1.15,2013-01-11 12:02:00,
2013-01-11 07:07:00,28.2,21.3,30.47,NW,326,0.0,0.0,75,0.00,,,0.00,Wunderground v.1.15,2013-01-11 12:07:00,
2013-01-11 07:12:00,28.2,21.3,30.47,NW,326,0.0,0.0,75,0.00,,,0.00,Wunderground v.1.15,2013-01-11 12:12:00,
2013-01-11 07:17:00,28.3,21.4,30.47,NW,326,0.0,2.0,75,0.00,,,0.00,Wunderground v.1.15,2013-01-11 12:17:00,
2013-01-11 07:22:00,28.3,21.4,30.47,NW,326,0.0,2.0,75,0.00,,,0.00,Wunderground v.1.15,2013-01-11 12:22:00,
2013-01-11 07:27:00,28.3,21.4,30.47,NW,326,0.0,3.0,75,0.00,,,0.00,Wunderground v.1.15,2013-01-11 12:27:00,
2013-01-11 07:32:00,28.4,21.5,30.46,NW,326,2.0,2.0,75,0.00,,,0.00,Wunderground v.1.15,2013-01-11 12:32:00,
2013-01-11 07:37:00,28.4,21.5,30.46,NW,326,3.0,3.0,75,0.00,,,0.00,Wunderground v.1.15,2013-01-11 12:37:00,
2013-01-11 07:42:00,28.4,21.5,30.47,NW,325,2.0,3.0,75,0.00,,,0.00,Wunderground v.1.15,2013-01-11 12:42:00,
2013-01-11 07:47:00,28.5,21.6,30.47,NW,325,0.0,3.0,75,0.00,,,0.00,Wunderground v.1.15,2013-01-11 12:47:00,
2013-01-11 07:52:00,28.5,21.6,30.47,NW,325,0.0,1.0,75,0.00,,,0.00,Wunderground v.1.15,2013-01-11 12:52:00,
2013-01-11 07:57:00,28.6,21.7,30.47,NW,325,1.0,2.0,75,0.00,,,0.00,Wunderground v.1.15,2013-01-11 12:57:00,
2013-01-11 08:02:00,28.7,21.8,30.48,NW,325,0.0,2.0,75,0.00,,,0.00,Wunderground v.1.15,2013-01-11 13:02:00,
2013-01-11 08:07:00,28.8,22.2,30.48,NW,325,1.0,3.0,76,0.00,,,0.00,Wunderground v.1.15,2013-01-11 13:07:00,
2013-01-11 08:12:00,28.9,22.3,30.48,NW,325,4.0,4.0,76,0.00,,,0.00,Wunderground v.1.15,2013-01-11 13:12:00,
2013-01-11 08:17:00,29.0,22.4,30.48,NW,306,0.0,4.0,76,0.00,,,0.00,Wunderground v.1.15,2013-01-11 13:17:00,
2013-01-11 08:22:00,29.2,22.6,30.48,NW,306,0.0,2.0,76,0.00,,,0.00,Wunderground v.1.15,2013-01-11 13:22:00,
2013-01-11 08:27:00,29.3,22.7,30.48,NW,306,0.0,2.0,76,0.00,,,0.00,Wunderground v.1.15,2013-01-11 13:27:00,
2013-01-11 08:32:00,29.5,22.9,30.47,NW,306,0.0,0.0,76,0.00,,,0.00,Wunderground v.1.15,2013-01-11 13:32:00,
2013-01-11 08:37:00,29.6,23.0,30.47,NW,306,0.0,2.0,76,0.00,,,0.00,Wunderground v.1.15,2013-01-11 13:37:00,
2013-01-11 08:42:00,29.7,23.1,30.47,NW,306,0.0,0.0,76,0.00,,,0.00,Wunderground v.1.15,2013-01-11 13:42:00,
2013-01-11 08:47:00,29.9,22.9,30.47,NW,306,0.0,0.0,75,0.00,,,0.00,Wunderground v.1.15,2013-01-11 13:47:00,
2013-01-11 08:52:00,30.1,23.1,30.46,NW,306,0.0,0.0,75,0.00,,,0.00,Wunderground v.1.15,2013-01-11 13:52:00,
2013-01-11 08:57:00,30.3,23.3,30.46,NW,306,0.0,0.0,75,0.00,,,0.00,Wunderground v.1.15,2013-01-11 13:57:00,
2013-01-11 09:02:00,30.5,23.5,30.46,NW,306,0.0,0.0,75,0.00,,,0.00,Wunderground v.1.15,2013-01-11 14:02:00,
2013-01-11 09:07:00,30.7,23.4,30.46,NW,306,0.0,2.0,74,0.00,,,0.00,Wunderground v.1.15,2013-01-11 14:07:00,
2013-01-11 09:12:00,31.0,23.7,30.46,NW,306,0.0,0.0,74,0.00,,,0.00,Wunderground v.1.15,2013-01-11 14:12:00,
2013-01-11 09:17:00,31.2,23.9,30.45,NW,306,0.0,2.0,74,0.00,,,0.00,Wunderground v.1.15,2013-01-11 14:17:00,
2013-01-11 09:22:00,31.6,24.3,30.45,NW,306,0.0,0.0,74,0.00,,,0.00,Wunderground v.1.15,2013-01-11 14:22:00,
2013-01-11 09:27:00,32.1,24.4,30.46,NW,306,1.0,3.0,73,0.00,,,0.00,Wunderground v.1.15,2013-01-11 14:27:00,
2013-01-11 09:32:00,32.6,24.6,30.46,NW,306,1.0,1.0,72,0.00,,,0.00,Wunderground v.1.15,2013-01-11 14:32:00,
2013-01-11 09:37:00,33.1,25.1,30.46,NW,306,0.0,2.0,72,0.00,,,0.00,Wunderground v.1.15,2013-01-11 14:37:00,
2013-01-11 09:42:00,33.4,25.0,30.46,NW,306,0.0,0.0,71,0.00,,,0.00,Wunderground v.1.15,2013-01-11 14:42:00,
2013-01-11 09:47:00,33.8,25.0,30.45,NW,306,1.0,3.0,70,0.00,,,0.00,Wunderground v.1.15,2013-01-11 14:47:00,
2013-01-11 09:52:00,34.1,25.0,30.45,NW,306,2.0,3.0,69,0.00,,,0.00,Wunderground v.1.15,2013-01-11 14:52:00,
2013-01-11 09:57:00,34.4,25.3,30.45,NW,306,0.0,3.0,69,0.00,,,0.00,Wunderground v.1.15,2013-01-11 14:57:00,
2013-01-11 10:02:00,34.6,25.5,30.46,WNW,301,2.0,3.0,69,0.00,,,0.00,Wunderground v.1.15,2013-01-11 15:02:00,
2013-01-11 10:07:00,35.1,25.6,30.46,WNW,301,0.0,4.0,68,0.00,,,0.00,Wunderground v.1.15,2013-01-11 15:07:00,
2013-01-11 10:12:00,35.4,25.9,30.45,WNW,300,0.0,2.0,68,0.00,,,0.00,Wunderground v.1.15,2013-01-11 15:12:00,
2013-01-11 10:17:00,35.6,25.7,30.45,WNW,300,0.0,2.0,67,0.00,,,0.00,Wunderground v.1.15,2013-01-11 15:17:00,
2013-01-11 10:22:00,35.8,25.5,30.45,WNW,300,0.0,1.0,66,0.00,,,0.00,Wunderground v.1.15,2013-01-11 15:22:00,
2013-01-11 10:27:00,36.0,25.7,30.45,WNW,300,0.0,1.0,66,0.00,,,0.00,Wunderground v.1.15,2013-01-11 15:27:00,
2013-01-11 10:32:00,36.1,25.8,30.44,WNW,300,0.0,2.0,66,0.00,,,0.00,Wunderground v.1.15,2013-01-11 15:32:00,
2013-01-11 10:37:00,36.4,26.1,30.44,WNW,300,2.0,2.0,66,0.00,,,0.00,Wunderground v.1.15,2013-01-11 15:37:00,
2013-01-11 10:42:00,36.6,26.3,30.44,WNW,300,0.0,1.0,66,0.00,,,0.00,Wunderground v.1.15,2013-01-11 15:42:00,
2013-01-11 10:47:00,36.9,26.6,30.43,WNW,300,0.0,2.0,66,0.00,,,0.00,Wunderground v.1.15,2013-01-11 15:47:00,
2013-01-11 10:52:00,37.2,26.9,30.42,WNW,301,0.0,2.0,66,0.00,,,0.00,Wunderground v.1.15,2013-01-11 15:52:00,
2013-01-11 10:57:00,37.5,27.2,30.42,WNW,302,0.0,3.0,66,0.00,,,0.00,Wunderground v.1.15,2013-01-11 15:57:00,
2013-01-11 11:02:00,38.0,27.6,30.42,WNW,302,0.0,2.0,66,0.00,,,0.00,Wunderground v.1.15,2013-01-11 16:02:00,
2013-01-11 11:07:00,38.3,27.6,30.42,South,188,1.0,3.0,65,0.00,,,0.00,Wunderground v.1.15,2013-01-11 16:07:00,
2013-01-11 11:12:00,38.7,27.9,30.41,East,79,6.0,7.0,65,0.00,,,0.00,Wunderground v.1.15,2013-01-11 16:12:00,
2013-01-11 11:17:00,39.1,28.3,30.40,ESE,110,3.0,8.0,65,0.00,,,0.00,Wunderground v.1.15,2013-01-11 16:17:00,
2013-01-11 11:23:00,39.5,28.7,30.40,East,100,5.0,8.0,65,0.00,,,0.00,Wunderground v.1.15,2013-01-11 16:23:00,
2013-01-11 11:27:00,39.8,28.6,30.40,SE,126,4.0,9.0,64,0.00,,,0.00,Wunderground v.1.15,2013-01-11 16:27:00,
2013-01-11 11:33:00,40.1,28.9,30.39,ESE,109,4.0,7.0,64,0.00,,,0.00,Wunderground v.1.15,2013-01-11 16:33:00,
2013-01-11 11:38:00,40.2,28.6,30.39,ESE,112,2.0,7.0,63,0.00,,,0.00,Wunderground v.1.15,2013-01-11 16:38:00,
2013-01-11 11:43:00,40.3,28.7,30.39,ESE,121,5.0,8.0,63,0.00,,,0.00,Wunderground v.1.15,2013-01-11 16:43:00,
2013-01-11 11:48:00,40.4,28.8,30.39,ESE,109,5.0,9.0,63,0.00,,,0.00,Wunderground v.1.15,2013-01-11 16:48:00,
2013-01-11 11:53:00,40.5,28.9,30.39,ESE,109,2.0,8.0,63,0.00,,,0.00,Wunderground v.1.15,2013-01-11 16:53:00,
2013-01-11 11:58:00,40.6,29.4,30.38,ESE,105,8.0,9.0,64,0.00,,,0.00,Wunderground v.1.15,2013-01-11 16:58:00,
2013-01-11 12:03:00,40.6,29.4,30.38,SE,131,4.0,8.0,64,0.00,,,0.00,Wunderground v.1.15,2013-01-11 17:03:00,
2013-01-11 12:08:00,40.6,29.4,30.38,ESE,113,5.0,8.0,64,0.00,,,0.00,Wunderground v.1.15,2013-01-11 17:08:00,
2013-01-11 12:13:00,40.7,29.5,30.37,SSE,150,5.0,8.0,64,0.00,,,0.00,Wunderground v.1.15,2013-01-11 17:13:00,
2013-01-11 12:18:00,40.7,29.5,30.37,SE,137,2.0,8.0,64,0.00,,,0.00,Wunderground v.1.15,2013-01-11 17:18:00,
2013-01-11 12:23:00,40.8,29.6,30.36,SE,134,4.0,6.0,64,0.00,,,0.00,Wunderground v.1.15,2013-01-11 17:23:00,
2013-01-11 12:28:00,40.8,29.6,30.37,SE,145,4.0,9.0,64,0.00,,,0.00,Wunderground v.1.15,2013-01-11 17:28:00,
2013-01-11 12:33:00,40.7,29.5,30.37,South,184,3.0,5.0,64,0.00,,,0.00,Wunderground v.1.15,2013-01-11 17:33:00,
2013-01-11 12:38:00,40.7,29.5,30.38,South,175,2.0,6.0,64,0.00,,,0.00,Wunderground v.1.15,2013-01-11 17:38:00,
2013-01-11 12:43:00,40.6,29.7,30.37,SSE,161,2.0,6.0,65,0.00,,,0.00,Wunderground v.1.15,2013-01-11 17:43:00,
2013-01-11 12:48:00,40.6,29.7,30.38,SSE,164,2.0,6.0,65,0.00,,,0.00,Wunderground v.1.15,2013-01-11 17:48:00,
2013-01-11 12:53:00,40.6,29.7,30.38,SE,130,4.0,6.0,65,0.00,,,0.00,Wunderground v.1.15,2013-01-11 17:53:00,
2013-01-11 12:58:00,40.6,29.7,30.37,SE,139,5.0,6.0,65,0.00,,,0.00,Wunderground v.1.15,2013-01-11 17:58:00,
2013-01-11 13:03:00,40.6,30.1,30.36,SE,139,5.0,5.0,66,0.00,,,0.00,Wunderground v.1.15,2013-01-11 18:03:00,
2013-01-11 13:08:00,40.6,30.1,30.35,SE,138,5.0,9.0,66,0.00,,,0.00,Wunderground v.1.15,2013-01-11 18:08:00,
2013-01-11 13:13:00,40.7,30.2,30.35,SE,145,3.0,5.0,66,0.00,,,0.00,Wunderground v.1.15,2013-01-11 18:13:00,
2013-01-11 13:18:00,40.7,30.2,30.35,SE,138,5.0,7.0,66,0.00,,,0.00,Wunderground v.1.15,2013-01-11 18:18:00,
2013-01-11 13:23:00,40.8,30.3,30.35,SE,140,3.0,5.0,66,0.00,,,0.00,Wunderground v.1.15,2013-01-11 18:23:00,
2013-01-11 13:28:00,40.8,30.3,30.35,SE,143,0.0,5.0,66,0.00,,,0.00,Wunderground v.1.15,2013-01-11 18:28:00,
2013-01-11 13:33:00,40.8,30.3,30.35,SE,142,1.0,3.0,66,0.00,,,0.00,Wunderground v.1.15,2013-01-11 18:33:00,
2013-01-11 13:38:00,40.7,30.2,30.35,SE,138,4.0,5.0,66,0.00,,,0.00,Wunderground v.1.15,2013-01-11 18:38:00,
2013-01-11 13:43:00,40.7,30.6,30.35,SE,132,4.0,4.0,67,0.00,,,0.00,Wunderground v.1.15,2013-01-11 18:43:00,
2013-01-11 13:48:00,40.6,30.5,30.35,SE,132,3.0,4.0,67,0.00,,,0.00,Wunderground v.1.15,2013-01-11 18:48:00,
2013-01-11 13:53:00,40.6,30.5,30.34,SE,130,2.0,5.0,67,0.00,,,0.00,Wunderground v.1.15,2013-01-11 18:53:00,
2013-01-11 13:58:00,40.6,30.5,30.35,SE,131,3.0,5.0,67,0.00,,,0.00,Wunderground v.1.15,2013-01-11 18:58:00,
2013-01-11 14:03:00,40.6,30.9,30.34,SE,131,2.0,4.0,68,0.00,,,0.00,Wunderground v.1.15,2013-01-11 19:03:00,
2013-01-11 14:08:00,40.6,30.5,30.34,SE,130,1.0,4.0,67,0.00,,,0.00,Wunderground v.1.15,2013-01-11 19:08:00,
2013-01-11 14:13:00,40.6,30.5,30.34,SE,130,1.0,3.0,67,0.00,,,0.00,Wunderground v.1.15,2013-01-11 19:13:00,
2013-01-11 14:18:00,40.6,30.5,30.34,SE,130,0.0,3.0,67,0.00,,,0.00,Wunderground v.1.15,2013-01-11 19:18:00,
2013-01-11 14:23:00,40.5,30.4,30.34,SE,131,0.0,2.0,67,0.00,,,0.00,Wunderground v.1.15,2013-01-11 19:23:00,
2013-01-11 14:28:00,40.5,30.8,30.34,SE,132,1.0,3.0,68,0.00,,,0.00,Wunderground v.1.15,2013-01-11 19:28:00,
2013-01-11 14:33:00,40.4,30.3,30.34,SSW,199,2.0,5.0,67,0.00,,,0.00,Wunderground v.1.15,2013-01-11 19:33:00,
2013-01-11 14:38:00,40.3,30.2,30.34,SSW,199,2.0,5.0,67,0.00,,,0.00,Wunderground v.1.15,2013-01-11 19:38:00,
2013-01-11 14:43:00,40.2,30.1,30.33,SSW,199,0.0,2.0,67,0.00,,,0.00,Wunderground v.1.15,2013-01-11 19:43:00,
2013-01-11 14:48:00,40.1,30.0,30.34,SW,223,2.0,4.0,67,0.00,,,0.00,Wunderground v.1.15,2013-01-11 19:48:00,
2013-01-11 14:53:00,40.0,29.9,30.33,SW,223,3.0,3.0,67,0.00,,,0.00,Wunderground v.1.15,2013-01-11 19:53:00,
2013-01-11 14:58:00,39.9,29.8,30.33,SW,224,1.0,4.0,67,0.00,,,0.00,Wunderground v.1.15,2013-01-11 19:58:00,
2013-01-11 15:03:00,39.8,29.7,30.33,SW,232,0.0,5.0,67,0.00,,,0.00,Wunderground v.1.15,2013-01-11 20:03:00,
2013-01-11 15:08:00,39.8,29.7,30.33,SW,232,0.0,5.0,67,0.00,,,0.00,Wunderground v.1.15,2013-01-11 20:08:00,
2013-01-11 15:13:00,39.7,29.6,30.33,WSW,239,3.0,3.0,67,0.00,,,0.00,Wunderground v.1.15,2013-01-11 20:13:00,
2013-01-11 15:18:00,39.7,29.6,30.32,WSW,238,0.0,3.0,67,0.00,,,0.00,Wunderground v.1.15,2013-01-11 20:18:00,
2013-01-11 15:23:00,39.7,29.3,30.31,SW,225,1.0,4.0,66,0.00,,,0.00,Wunderground v.1.15,2013-01-11 20:23:00,
2013-01-11 15:29:00,39.6,29.5,30.31,SW,225,1.0,4.0,67,0.00,,,0.00,Wunderground v.1.15,2013-01-11 20:29:00,
2013-01-11 15:34:00,39.7,29.6,30.30,SSE,164,4.0,6.0,67,0.00,,,0.00,Wunderground v.1.15,2013-01-11 20:34:00,
2013-01-11 15:39:00,39.6,29.5,30.31,South,169,2.0,6.0,67,0.00,,,0.00,Wunderground v.1.15,2013-01-11 20:39:00,
2013-01-11 15:44:00,39.6,29.5,30.31,South,170,1.0,3.0,67,0.00,,,0.00,Wunderground v.1.15,2013-01-11 20:44:00,
2013-01-11 15:49:00,39.6,29.5,30.31,South,170,0.0,3.0,67,0.00,,,0.00,Wunderground v.1.15,2013-01-11 20:49:00,
2013-01-11 15:54:00,39.6,29.5,30.30,South,170,0.0,3.0,67,0.00,,,0.00,Wunderground v.1.15,2013-01-11 20:54:00,
2013-01-11 15:59:00,39.5,29.4,30.30,South,169,0.0,4.0,67,0.00,,,0.00,Wunderground v.1.15,2013-01-11 20:59:00,
2013-01-11 16:04:00,39.5,29.4,30.30,South,171,3.0,3.0,67,0.00,,,0.00,Wunderground v.1.15,2013-01-11 21:04:00,
2013-01-11 16:09:00,39.5,29.4,30.29,South,171,3.0,3.0,67,0.00,,,0.00,Wunderground v.1.15,2013-01-11 21:09:00,
2013-01-11 16:14:00,39.5,29.4,30.29,South,171,2.0,3.0,67,0.00,,,0.00,Wunderground v.1.15,2013-01-11 21:14:00,
2013-01-11 16:19:00,39.5,29.4,30.29,South,171,1.0,3.0,67,0.00,,,0.00,Wunderground v.1.15,2013-01-11 21:19:00,
2013-01-11 16:24:00,39.5,29.4,30.29,South,171,2.0,3.0,67,0.00,,,0.00,Wunderground v.1.15,2013-01-11 21:24:00,
2013-01-11 16:29:00,39.4,29.7,30.29,South,171,3.0,5.0,68,0.00,,,0.00,Wunderground v.1.15,2013-01-11 21:29:00,
2013-01-11 16:34:00,39.4,29.7,30.29,SSW,194,4.0,6.0,68,0.00,,,0.00,Wunderground v.1.15,2013-01-11 21:34:00,
2013-01-11 16:39:00,39.4,29.3,30.29,SE,146,4.0,7.0,67,0.00,,,0.00,Wunderground v.1.15,2013-01-11 21:39:00,
2013-01-11 16:44:00,39.4,29.3,30.29,SSE,156,4.0,7.0,67,0.00,,,0.00,Wunderground v.1.15,2013-01-11 21:44:00,
2013-01-11 16:49:00,39.5,29.4,30.29,SSE,152,4.0,7.0,67,0.00,,,0.00,Wunderground v.1.15,2013-01-11 21:49:00,
2013-01-11 16:54:00,39.5,29.4,30.29,South,172,3.0,5.0,67,0.00,,,0.00,Wunderground v.1.15,2013-01-11 21:54:00,
2013-01-11 16:59:00,39.5,29.4,30.28,South,172,2.0,5.0,67,0.00,,,0.00,Wunderground v.1.15,2013-01-11 21:59:00,
2013-01-11 17:04:00,39.5,29.4,30.28,South,175,3.0,5.0,67,0.00,,,0.00,Wunderground v.1.15,2013-01-11 22:04:00,
2013-01-11 17:09:00,39.5,29.4,30.28,SSE,168,4.0,9.0,67,0.00,,,0.00,Wunderground v.1.15,2013-01-11 22:09:00,
2013-01-11 17:14:00,39.6,29.5,30.28,SSE,148,6.0,8.0,67,0.00,,,0.00,Wunderground v.1.15,2013-01-11 22:14:00,
2013-01-11 17:19:00,39.6,29.5,30.27,SSE,159,2.0,8.0,67,0.00,,,0.00,Wunderground v.1.15,2013-01-11 22:19:00,
2013-01-11 17:24:00,39.7,29.6,30.27,South,179,4.0,8.0,67,0.00,,,0.00,Wunderground v.1.15,2013-01-11 22:24:00,
2013-01-11 17:29:00,39.7,29.6,30.27,SSE,151,1.0,8.0,67,0.00,,,0.00,Wunderground v.1.15,2013-01-11 22:29:00,
2013-01-11 17:34:00,39.7,30.0,30.27,South,173,5.0,8.0,68,0.00,,,0.00,Wunderground v.1.15,2013-01-11 22:34:00,
2013-01-11 17:39:00,39.7,29.6,30.27,SSE,158,3.0,8.0,67,0.00,,,0.00,Wunderground v.1.15,2013-01-11 22:39:00,
2013-01-11 17:44:00,39.8,30.1,30.27,South,180,1.0,8.0,68,0.00,,,0.00,Wunderground v.1.15,2013-01-11 22:44:00,
2013-01-11 17:49:00,39.8,30.1,30.27,SSE,163,6.0,10.0,68,0.00,,,0.00,Wunderground v.1.15,2013-01-11 22:49:00,
2013-01-11 17:54:00,39.8,30.5,30.27,South,181,2.0,9.0,69,0.00,,,0.00,Wunderground v.1.15,2013-01-11 22:54:00,
2013-01-11 17:59:00,39.8,30.8,30.27,SSW,193,3.0,9.0,70,0.00,,,0.00,Wunderground v.1.15,2013-01-11 22:59:00,
2013-01-11 18:04:00,39.7,30.7,30.27,South,173,5.0,8.0,70,0.00,,,0.00,Wunderground v.1.15,2013-01-11 23:04:00,
2013-01-11 18:09:00,39.7,31.1,30.27,South,187,0.0,9.0,71,0.00,,,0.00,Wunderground v.1.15,2013-01-11 23:09:00,
2013-01-11 18:14:00,39.6,31.0,30.27,SSE,153,5.0,7.0,71,0.00,,,0.00,Wunderground v.1.15,2013-01-11 23:14:00,
2013-01-11 18:19:00,39.6,31.0,30.27,SSE,167,2.0,8.0,71,0.00,,,0.00,Wunderground v.1.15,2013-01-11 23:19:00,
2013-01-11 18:24:00,39.5,31.2,30.27,South,169,0.0,5.0,72,0.00,,,0.00,Wunderground v.1.15,2013-01-11 23:24:00,
2013-01-11 18:29:00,39.5,31.2,30.26,SSE,150,7.0,8.0,72,0.00,,,0.00,Wunderground v.1.15,2013-01-11 23:29:00,
2013-01-11 18:34:00,39.4,31.1,30.26,SSE,159,4.0,8.0,72,0.00,,,0.00,Wunderground v.1.15,2013-01-11 23:34:00,
2013-01-11 18:39:00,39.5,31.2,30.26,SSE,156,3.0,8.0,72,0.00,,,0.00,Wunderground v.1.15,2013-01-11 23:39:00,
2013-01-11 18:44:00,39.5,31.2,30.26,SSE,156,5.0,8.0,72,0.00,,,0.00,Wunderground v.1.15,2013-01-11 23:44:00,
2013-01-11 18:49:00,39.5,31.2,30.26,SE,141,4.0,8.0,72,0.00,,,0.00,Wunderground v.1.15,2013-01-11 23:49:00,
2013-01-11 18:54:00,39.4,31.1,30.25,SE,135,3.0,7.0,72,0.00,,,0.00,Wunderground v.1.15,2013-01-11 23:54:00,
2013-01-11 18:59:00,39.4,31.1,30.25,SSE,152,6.0,8.0,72,0.00,,,0.00,Wunderground v.1.15,2013-01-11 23:59:00,
2013-01-11 19:04:00,39.4,31.1,30.25,SSE,156,6.0,9.0,72,0.00,,,0.00,Wunderground v.1.15,2013-01-12 00:04:00,
2013-01-11 19:09:00,39.4,31.5,30.25,SE,140,8.0,9.0,73,0.00,,,0.00,Wunderground v.1.15,2013-01-12 00:09:00,
2013-01-11 19:14:00,39.5,31.6,30.24,SE,146,9.0,9.0,73,0.00,,,0.00,Wunderground v.1.15,2013-01-12 00:14:00,
2013-01-11 19:19:00,39.5,31.6,30.24,SSE,164,4.0,9.0,73,0.00,,,0.00,Wunderground v.1.15,2013-01-12 00:19:00,
2013-01-11 19:24:00,39.5,31.6,30.24,SE,134,5.0,6.0,73,0.00,,,0.00,Wunderground v.1.15,2013-01-12 00:24:00,
2013-01-11 19:29:00,39.4,31.5,30.24,ESE,115,3.0,7.0,73,0.00,,,0.00,Wunderground v.1.15,2013-01-12 00:29:00,
2013-01-11 19:34:00,39.4,31.8,30.24,ESE,121,3.0,8.0,74,0.00,,,0.00,Wunderground v.1.15,2013-01-12 00:34:00,
2013-01-11 19:39:00,39.4,32.1,30.24,ESE,121,5.0,8.0,75,0.00,,,0.00,Wunderground v.1.15,2013-01-12 00:39:00,
2013-01-11 19:44:00,39.3,32.0,30.25,ESE,119,3.0,7.0,75,0.00,,,0.00,Wunderground v.1.15,2013-01-12 00:44:00,
2013-01-11 19:49:00,39.1,32.2,30.24,ESE,121,4.0,8.0,76,0.00,,,0.00,Wunderground v.1.15,2013-01-12 00:49:00,
2013-01-11 19:54:00,39.0,32.1,30.24,SE,125,3.0,6.0,76,0.00,,,0.00,Wunderground v.1.15,2013-01-12 00:54:00,
2013-01-11 19:59:00,38.9,32.0,30.24,SE,139,3.0,10.0,76,0.00,,,0.00,Wunderground v.1.15,2013-01-12 00:59:00,
2013-01-11 20:04:00,38.7,31.8,30.24,SE,127,5.0,5.0,76,0.00,,,0.00,Wunderground v.1.15,2013-01-12 01:04:00,
2013-01-11 20:09:00,38.7,32.1,30.23,ESE,120,3.0,6.0,77,0.00,,,0.00,Wunderground v.1.15,2013-01-12 01:09:00,
2013-01-11 20:14:00,38.6,32.0,30.23,ESE,106,8.0,8.0,77,0.00,,,0.00,Wunderground v.1.15,2013-01-12 01:14:00,
2013-01-11 20:19:00,38.6,32.0,30.23,ESE,109,7.0,9.0,77,0.00,,,0.00,Wunderground v.1.15,2013-01-12 01:19:00,
2013-01-11 20:24:00,38.6,32.3,30.23,ESE,112,7.0,9.0,78,0.00,,,0.00,Wunderground v.1.15,2013-01-12 01:24:00,
2013-01-11 20:29:00,38.5,32.2,30.23,SE,137,4.0,9.0,78,0.00,,,0.00,Wunderground v.1.15,2013-01-12 01:29:00,
2013-01-11 20:34:00,38.5,32.2,30.23,SSE,156,1.0,7.0,78,0.00,,,0.00,Wunderground v.1.15,2013-01-12 01:34:00,
2013-01-11 20:39:00,38.4,32.5,30.23,SE,129,3.0,7.0,79,0.00,,,0.00,Wunderground v.1.15,2013-01-12 01:39:00,
2013-01-11 20:44:00,38.4,32.5,30.23,ESE,119,2.0,7.0,79,0.00,,,0.01,Wunderground v.1.15,2013-01-12 01:44:00,
2013-01-11 20:49:00,38.3,32.4,30.23,SE,132,4.0,7.0,79,0.00,,,0.01,Wunderground v.1.15,2013-01-12 01:49:00,
2013-01-11 20:54:00,38.3,32.7,30.22,SE,128,4.0,6.0,80,0.00,,,0.01,Wunderground v.1.15,2013-01-12 01:54:00,
2013-01-11 20:59:00,38.3,32.7,30.22,SSE,152,5.0,7.0,80,0.04,,,0.02,Wunderground v.1.15,2013-01-12 01:59:00,
2013-01-11 21:04:00,38.2,32.9,30.22,SSE,159,3.0,9.0,81,0.04,,,0.02,Wunderground v.1.15,2013-01-12 02:04:00,
2013-01-11 21:09:00,38.2,32.9,30.22,SE,134,6.0,9.0,81,0.04,,,0.02,Wunderground v.1.15,2013-01-12 02:09:00,
2013-01-11 21:14:00,38.3,33.0,30.22,SE,139,1.0,7.0,81,0.00,,,0.02,Wunderground v.1.15,2013-01-12 02:14:00,
2013-01-11 21:19:00,38.2,33.2,30.22,SE,140,3.0,7.0,82,0.00,,,0.02,Wunderground v.1.15,2013-01-12 02:19:00,
2013-01-11 21:24:00,38.2,33.2,30.22,SE,127,2.0,5.0,82,0.00,,,0.03,Wunderground v.1.15,2013-01-12 02:24:00,
2013-01-11 21:29:00,38.2,33.2,30.22,SE,127,3.0,7.0,82,0.00,,,0.03,Wunderground v.1.15,2013-01-12 02:29:00,
2013-01-11 21:34:00,38.2,33.2,30.22,SE,130,3.0,7.0,82,0.00,,,0.03,Wunderground v.1.15,2013-01-12 02:34:00,
2013-01-11 21:39:00,38.1,33.1,30.21,SE,130,3.0,7.0,82,0.00,,,0.03,Wunderground v.1.15,2013-01-12 02:39:00,
2013-01-11 21:44:00,38.1,33.1,30.21,SE,131,5.0,5.0,82,0.00,,,0.03,Wunderground v.1.15,2013-01-12 02:44:00,
2013-01-11 21:49:00,38.1,33.1,30.22,SE,131,3.0,5.0,82,0.00,,,0.04,Wunderground v.1.15,2013-01-12 02:49:00,
2013-01-11 21:55:00,38.0,33.3,30.21,SE,136,2.0,5.0,83,0.00,,,0.04,Wunderground v.1.15,2013-01-12 02:55:00,
2013-01-11 22:00:00,38.0,33.3,30.21,ESE,119,3.0,4.0,83,0.00,,,0.04,Wunderground v.1.15,2013-01-12 03:00:00,
2013-01-11 22:05:00,38.0,33.3,30.21,SSE,148,5.0,10.0,83,0.00,,,0.04,Wunderground v.1.15,2013-01-12 03:05:00,
2013-01-11 22:10:00,38.0,33.3,30.21,ESE,121,4.0,5.0,83,0.00,,,0.04,Wunderground v.1.15,2013-01-12 03:10:00,
2013-01-11 22:15:00,38.0,33.3,30.21,ESE,118,4.0,5.0,83,0.00,,,0.04,Wunderground v.1.15,2013-01-12 03:15:00,
2013-01-11 22:20:00,38.0,33.3,30.20,SE,125,2.0,4.0,83,0.00,,,0.04,Wunderground v.1.15,2013-01-12 03:20:00,
2013-01-11 22:25:00,38.0,33.6,30.20,ESE,119,5.0,7.0,84,0.00,,,0.04,Wunderground v.1.15,2013-01-12 03:25:00,
2013-01-11 22:30:00,38.0,33.6,30.20,ESE,118,3.0,4.0,84,0.00,,,0.04,Wunderground v.1.15,2013-01-12 03:30:00,
2013-01-11 22:35:00,38.0,33.6,30.20,ESE,121,5.0,7.0,84,0.00,,,0.04,Wunderground v.1.15,2013-01-12 03:35:00,
2013-01-11 22:40:00,37.9,33.5,30.20,ESE,120,5.0,5.0,84,0.00,,,0.04,Wunderground v.1.15,2013-01-12 03:40:00,
2013-01-11 22:45:00,37.9,33.5,30.19,SE,130,3.0,8.0,84,0.00,,,0.04,Wunderground v.1.15,2013-01-12 03:45:00,
2013-01-11 22:50:00,37.9,33.5,30.19,ESE,113,1.0,4.0,84,0.00,,,0.04,Wunderground v.1.15,2013-01-12 03:50:00,
2013-01-11 22:55:00,37.9,33.5,30.20,SE,138,1.0,5.0,84,0.00,,,0.04,Wunderground v.1.15,2013-01-12 03:55:00,
2013-01-11 23:00:00,37.9,33.5,30.20,SE,138,3.0,4.0,84,0.00,,,0.04,Wunderground v.1.15,2013-01-12 04:00:00,
2013-01-11 23:05:00,37.9,33.5,30.20,SE,140,2.0,4.0,84,0.00,,,0.04,Wunderground v.1.15,2013-01-12 04:05:00,
2013-01-11 23:10:00,37.9,33.5,30.20,SE,137,4.0,4.0,84,0.00,,,0.04,Wunderground v.1.15,2013-01-12 04:10:00,
2013-01-11 23:15:00,37.8,33.4,30.21,SSE,168,5.0,7.0,84,0.00,,,0.04,Wunderground v.1.15,2013-01-12 04:15:00,
2013-01-11 23:20:00,37.9,33.5,30.21,SSE,150,4.0,4.0,84,0.00,,,0.05,Wunderground v.1.15,2013-01-12 04:20:00,
2013-01-11 23:25:00,37.9,33.8,30.21,SE,142,3.0,7.0,85,0.00,,,0.05,Wunderground v.1.15,2013-01-12 04:25:00,
2013-01-11 23:30:00,38.0,33.9,30.21,SE,143,0.0,4.0,85,0.07,,,0.06,Wunderground v.1.15,2013-01-12 04:30:00,
2013-01-11 23:35:00,38.0,33.9,30.21,SE,144,5.0,6.0,85,0.07,,,0.06,Wunderground v.1.15,2013-01-12 04:35:00,
2013-01-11 23:40:00,38.0,33.9,30.21,SE,146,5.0,5.0,85,0.05,,,0.06,Wunderground v.1.15,2013-01-12 04:40:00,
2013-01-11 23:45:00,38.0,33.9,30.20,SE,130,3.0,7.0,85,0.00,,,0.06,Wunderground v.1.15,2013-01-12 04:45:00,
2013-01-11 23:50:00,38.0,33.9,30.20,SE,130,5.0,5.0,85,0.00,,,0.06,Wunderground v.1.15,2013-01-12 04:50:00,
2013-01-11 23:55:00,38.0,33.9,30.20,SE,134,2.0,6.0,85,0.00,,,0.06,Wunderground v.1.15,2013-01-12 04:55:00,